sensor_id;sensor_type;location;lat;lon;timestamp;P1;durP1;ratioP1;P2;durP2;ratioP2
9972;SDS011;5027;53.560;10.062;2023-02-28T00:00:34;7.37;;;4.03;;
9972;SDS011;5027;53.560;10.062;2023-02-28T00:03:02;7.03;;;3.53;;
9972;SDS011;5027;53.560;10.062;2023-02-28T00:05:29;7.53;;;3.67;;
9972;SDS011;5027;53.560;10.062;2023-02-28T00:07:56;7.50;;;3.40;;
9972;SDS011;5027;53.560;10.062;2023-02-28T00:10:25;7.47;;;3.40;;
9972;SDS011;5027;53.560;10.062;2023-02-28T00:12:54;7.63;;;3.37;;
9972;SDS011;5027;53.560;10.062;2023-02-28T00:15:23;6.77;;;3.80;;
9972;SDS011;5027;53.560;10.062;2023-02-28T00:17:50;5.33;;;3.20;;
9972;SDS011;5027;53.560;10.062;2023-02-28T00:20:17;6.57;;;3.87;;
9972;SDS011;5027;53.560;10.062;2023-02-28T00:22:46;5.73;;;3.27;;
9972;SDS011;5027;53.560;10.062;2023-02-28T00:25:17;7.80;;;3.63;;
9972;SDS011;5027;53.560;10.062;2023-02-28T00:27:45;4.50;;;3.00;;
9972;SDS011;5027;53.560;10.062;2023-02-28T00:30:14;5.80;;;3.30;;
9972;SDS011;5027;53.560;10.062;2023-02-28T00:32:46;10.20;;;3.50;;
9972;SDS011;5027;53.560;10.062;2023-02-28T00:35:13;6.53;;;3.40;;
9972;SDS011;5027;53.560;10.062;2023-02-28T00:37:40;5.67;;;3.23;;
9972;SDS011;5027;53.560;10.062;2023-02-28T00:40:07;4.50;;;3.10;;
9972;SDS011;5027;53.560;10.062;2023-02-28T00:42:35;7.27;;;3.20;;
9972;SDS011;5027;53.560;10.062;2023-02-28T00:45:03;4.97;;;3.03;;
9972;SDS011;5027;53.560;10.062;2023-02-28T00:47:31;5.77;;;3.10;;
9972;SDS011;5027;53.560;10.062;2023-02-28T00:49:58;6.73;;;3.33;;
9972;SDS011;5027;53.560;10.062;2023-02-28T00:52:24;5.23;;;3.30;;
9972;SDS011;5027;53.560;10.062;2023-02-28T00:54:53;5.30;;;3.00;;
9972;SDS011;5027;53.560;10.062;2023-02-28T00:57:20;5.10;;;3.00;;
9972;SDS011;5027;53.560;10.062;2023-02-28T00:59:47;6.30;;;3.17;;
9972;SDS011;5027;53.560;10.062;2023-02-28T01:02:14;5.90;;;3.13;;
9972;SDS011;5027;53.560;10.062;2023-02-28T01:04:40;5.40;;;2.90;;
9972;SDS011;5027;53.560;10.062;2023-02-28T01:07:07;6.40;;;3.20;;
9972;SDS011;5027;53.560;10.062;2023-02-28T01:09:34;5.30;;;3.00;;
9972;SDS011;5027;53.560;10.062;2023-02-28T01:12:01;9.93;;;3.70;;
9972;SDS011;5027;53.560;10.062;2023-02-28T01:14:27;9.63;;;3.50;;
9972;SDS011;5027;53.560;10.062;2023-02-28T01:16:54;4.63;;;3.00;;
9972;SDS011;5027;53.560;10.062;2023-02-28T01:19:20;6.37;;;3.43;;
9972;SDS011;5027;53.560;10.062;2023-02-28T01:21:47;5.67;;;3.00;;
9972;SDS011;5027;53.560;10.062;2023-02-28T01:24:14;6.83;;;3.40;;
9972;SDS011;5027;53.560;10.062;2023-02-28T01:26:40;5.13;;;3.30;;
9972;SDS011;5027;53.560;10.062;2023-02-28T01:29:07;6.87;;;3.13;;
9972;SDS011;5027;53.560;10.062;2023-02-28T01:31:34;8.00;;;3.47;;
9972;SDS011;5027;53.560;10.062;2023-02-28T01:34:01;4.50;;;3.30;;
9972;SDS011;5027;53.560;10.062;2023-02-28T01:36:28;7.80;;;3.30;;
9972;SDS011;5027;53.560;10.062;2023-02-28T01:38:55;5.83;;;3.20;;
9972;SDS011;5027;53.560;10.062;2023-02-28T01:41:23;7.07;;;3.60;;
9972;SDS011;5027;53.560;10.062;2023-02-28T01:43:57;6.60;;;3.40;;
9972;SDS011;5027;53.560;10.062;2023-02-28T01:46:33;10.57;;;3.40;;
9972;SDS011;5027;53.560;10.062;2023-02-28T01:49:03;7.00;;;3.53;;
9972;SDS011;5027;53.560;10.062;2023-02-28T01:54:18;5.27;;;4.00;;
9972;SDS011;5027;53.560;10.062;2023-02-28T01:56:52;4.70;;;3.40;;
9972;SDS011;5027;53.560;10.062;2023-02-28T01:59:30;4.70;;;3.63;;
9972;SDS011;5027;53.560;10.062;2023-02-28T02:02:04;8.40;;;3.40;;
9972;SDS011;5027;53.560;10.062;2023-02-28T02:04:37;5.43;;;3.60;;
9972;SDS011;5027;53.560;10.062;2023-02-28T02:07:19;5.07;;;3.47;;
9972;SDS011;5027;53.560;10.062;2023-02-28T02:09:47;6.57;;;3.90;;
9972;SDS011;5027;53.560;10.062;2023-02-28T02:12:21;9.10;;;4.93;;
9972;SDS011;5027;53.560;10.062;2023-02-28T02:14:59;7.60;;;3.83;;
9972;SDS011;5027;53.560;10.062;2023-02-28T02:17:48;5.23;;;3.43;;
9972;SDS011;5027;53.560;10.062;2023-02-28T02:29:21;5.43;;;3.27;;
9972;SDS011;5027;53.560;10.062;2023-02-28T02:32:16;6.73;;;3.70;;
9972;SDS011;5027;53.560;10.062;2023-02-28T02:35:02;8.10;;;3.57;;
9972;SDS011;5027;53.560;10.062;2023-02-28T02:37:51;6.93;;;3.70;;
9972;SDS011;5027;53.560;10.062;2023-02-28T02:40:42;4.50;;;3.40;;
9972;SDS011;5027;53.560;10.062;2023-02-28T02:43:25;7.03;;;3.30;;
9972;SDS011;5027;53.560;10.062;2023-02-28T02:45:59;5.97;;;3.43;;
9972;SDS011;5027;53.560;10.062;2023-02-28T02:48:33;5.87;;;3.63;;
9972;SDS011;5027;53.560;10.062;2023-02-28T02:51:03;5.87;;;4.13;;
9972;SDS011;5027;53.560;10.062;2023-02-28T02:53:50;7.73;;;3.80;;
9972;SDS011;5027;53.560;10.062;2023-02-28T02:56:23;6.27;;;3.47;;
9972;SDS011;5027;53.560;10.062;2023-02-28T02:58:55;5.60;;;3.50;;
9972;SDS011;5027;53.560;10.062;2023-02-28T03:01:27;7.87;;;3.73;;
9972;SDS011;5027;53.560;10.062;2023-02-28T03:03:57;9.10;;;4.00;;
9972;SDS011;5027;53.560;10.062;2023-02-28T03:06:26;7.63;;;3.73;;
9972;SDS011;5027;53.560;10.062;2023-02-28T03:08:53;6.43;;;4.10;;
9972;SDS011;5027;53.560;10.062;2023-02-28T03:11:21;7.70;;;4.33;;
9972;SDS011;5027;53.560;10.062;2023-02-28T03:16:35;7.47;;;4.43;;
9972;SDS011;5027;53.560;10.062;2023-02-28T03:19:20;7.50;;;4.10;;
9972;SDS011;5027;53.560;10.062;2023-02-28T03:24:37;7.17;;;4.47;;
9972;SDS011;5027;53.560;10.062;2023-02-28T03:30:51;8.20;;;4.53;;
9972;SDS011;5027;53.560;10.062;2023-02-28T03:33:23;6.73;;;4.40;;
9972;SDS011;5027;53.560;10.062;2023-02-28T03:35:55;8.87;;;4.97;;
9972;SDS011;5027;53.560;10.062;2023-02-28T03:38:28;7.10;;;4.50;;
9972;SDS011;5027;53.560;10.062;2023-02-28T03:41:06;7.87;;;4.47;;
9972;SDS011;5027;53.560;10.062;2023-02-28T03:43:40;10.37;;;5.07;;
9972;SDS011;5027;53.560;10.062;2023-02-28T03:46:12;7.10;;;4.50;;
9972;SDS011;5027;53.560;10.062;2023-02-28T03:48:58;5.97;;;4.40;;
9972;SDS011;5027;53.560;10.062;2023-02-28T03:51:31;6.67;;;4.37;;
9972;SDS011;5027;53.560;10.062;2023-02-28T03:54:04;8.07;;;4.87;;
9972;SDS011;5027;53.560;10.062;2023-02-28T03:56:59;7.47;;;4.47;;
9972;SDS011;5027;53.560;10.062;2023-02-28T03:59:28;8.50;;;5.20;;
9972;SDS011;5027;53.560;10.062;2023-02-28T04:01:58;9.17;;;5.37;;
9972;SDS011;5027;53.560;10.062;2023-02-28T04:04:25;8.27;;;4.87;;
9972;SDS011;5027;53.560;10.062;2023-02-28T04:06:52;9.83;;;5.37;;
9972;SDS011;5027;53.560;10.062;2023-02-28T04:09:29;8.43;;;4.70;;
9972;SDS011;5027;53.560;10.062;2023-02-28T04:11:55;8.43;;;4.53;;
9972;SDS011;5027;53.560;10.062;2023-02-28T04:14:22;7.50;;;4.57;;
9972;SDS011;5027;53.560;10.062;2023-02-28T04:16:49;6.27;;;4.37;;
9972;SDS011;5027;53.560;10.062;2023-02-28T04:19:17;7.60;;;4.80;;
9972;SDS011;5027;53.560;10.062;2023-02-28T04:21:45;8.37;;;4.73;;
9972;SDS011;5027;53.560;10.062;2023-02-28T04:24:23;7.47;;;4.90;;
9972;SDS011;5027;53.560;10.062;2023-02-28T04:26:54;7.37;;;4.60;;
9972;SDS011;5027;53.560;10.062;2023-02-28T04:29:23;6.30;;;4.73;;
9972;SDS011;5027;53.560;10.062;2023-02-28T04:31:55;7.73;;;5.07;;
9972;SDS011;5027;53.560;10.062;2023-02-28T04:34:24;10.33;;;5.00;;
9972;SDS011;5027;53.560;10.062;2023-02-28T04:36:52;6.70;;;4.60;;
9972;SDS011;5027;53.560;10.062;2023-02-28T04:39:37;7.73;;;4.67;;
9972;SDS011;5027;53.560;10.062;2023-02-28T04:42:05;9.00;;;5.67;;
9972;SDS011;5027;53.560;10.062;2023-02-28T04:44:31;7.67;;;4.77;;
9972;SDS011;5027;53.560;10.062;2023-02-28T04:46:58;9.63;;;4.80;;
9972;SDS011;5027;53.560;10.062;2023-02-28T04:49:25;11.23;;;5.40;;
9972;SDS011;5027;53.560;10.062;2023-02-28T04:51:51;12.53;;;6.90;;
9972;SDS011;5027;53.560;10.062;2023-02-28T04:54:19;7.23;;;4.93;;
9972;SDS011;5027;53.560;10.062;2023-02-28T04:56:46;7.27;;;5.03;;
9972;SDS011;5027;53.560;10.062;2023-02-28T04:59:15;12.00;;;5.27;;
9972;SDS011;5027;53.560;10.062;2023-02-28T05:01:44;7.90;;;5.00;;
9972;SDS011;5027;53.560;10.062;2023-02-28T05:04:12;8.73;;;5.43;;
9972;SDS011;5027;53.560;10.062;2023-02-28T05:06:39;11.80;;;5.13;;
9972;SDS011;5027;53.560;10.062;2023-02-28T05:09:06;11.27;;;5.23;;
9972;SDS011;5027;53.560;10.062;2023-02-28T05:11:34;9.43;;;5.37;;
9972;SDS011;5027;53.560;10.062;2023-02-28T05:14:01;10.60;;;5.97;;
9972;SDS011;5027;53.560;10.062;2023-02-28T05:16:30;8.53;;;5.23;;
9972;SDS011;5027;53.560;10.062;2023-02-28T05:18:57;8.37;;;4.93;;
9972;SDS011;5027;53.560;10.062;2023-02-28T05:21:29;12.17;;;5.97;;
9972;SDS011;5027;53.560;10.062;2023-02-28T05:23:59;7.60;;;5.40;;
9972;SDS011;5027;53.560;10.062;2023-02-28T05:26:28;11.50;;;5.57;;
9972;SDS011;5027;53.560;10.062;2023-02-28T05:28:55;16.10;;;6.40;;
9972;SDS011;5027;53.560;10.062;2023-02-28T05:31:22;8.37;;;5.07;;
9972;SDS011;5027;53.560;10.062;2023-02-28T05:33:49;10.53;;;5.90;;
9972;SDS011;5027;53.560;10.062;2023-02-28T05:36:16;11.43;;;5.87;;
9972;SDS011;5027;53.560;10.062;2023-02-28T05:38:43;7.00;;;5.20;;
9972;SDS011;5027;53.560;10.062;2023-02-28T05:41:11;9.77;;;5.67;;
9972;SDS011;5027;53.560;10.062;2023-02-28T05:43:38;8.00;;;4.97;;
9972;SDS011;5027;53.560;10.062;2023-02-28T05:46:05;8.77;;;5.33;;
9972;SDS011;5027;53.560;10.062;2023-02-28T05:48:34;8.83;;;5.13;;
9972;SDS011;5027;53.560;10.062;2023-02-28T05:51:02;11.50;;;6.03;;
9972;SDS011;5027;53.560;10.062;2023-02-28T05:53:30;8.93;;;5.90;;
9972;SDS011;5027;53.560;10.062;2023-02-28T05:55:57;7.70;;;5.30;;
9972;SDS011;5027;53.560;10.062;2023-02-28T05:58:24;12.20;;;5.20;;
9972;SDS011;5027;53.560;10.062;2023-02-28T06:00:57;8.13;;;5.70;;
9972;SDS011;5027;53.560;10.062;2023-02-28T06:03:24;7.10;;;5.53;;
9972;SDS011;5027;53.560;10.062;2023-02-28T06:05:51;10.47;;;5.57;;
9972;SDS011;5027;53.560;10.062;2023-02-28T06:08:18;17.30;;;5.43;;
9972;SDS011;5027;53.560;10.062;2023-02-28T06:10:45;8.83;;;5.00;;
9972;SDS011;5027;53.560;10.062;2023-02-28T06:13:11;13.33;;;5.63;;
9972;SDS011;5027;53.560;10.062;2023-02-28T06:15:38;8.40;;;5.20;;
9972;SDS011;5027;53.560;10.062;2023-02-28T06:18:05;10.07;;;5.90;;
9972;SDS011;5027;53.560;10.062;2023-02-28T06:20:33;7.93;;;5.40;;
9972;SDS011;5027;53.560;10.062;2023-02-28T06:23:00;11.13;;;5.63;;
9972;SDS011;5027;53.560;10.062;2023-02-28T06:25:27;9.87;;;5.33;;
9972;SDS011;5027;53.560;10.062;2023-02-28T06:27:54;8.90;;;5.53;;
9972;SDS011;5027;53.560;10.062;2023-02-28T06:30:21;10.10;;;5.60;;
9972;SDS011;5027;53.560;10.062;2023-02-28T06:32:53;12.07;;;5.40;;
9972;SDS011;5027;53.560;10.062;2023-02-28T06:35:21;9.67;;;5.77;;
9972;SDS011;5027;53.560;10.062;2023-02-28T06:37:48;11.13;;;6.00;;
9972;SDS011;5027;53.560;10.062;2023-02-28T06:40:15;13.57;;;6.30;;
9972;SDS011;5027;53.560;10.062;2023-02-28T06:42:42;17.03;;;5.50;;
9972;SDS011;5027;53.560;10.062;2023-02-28T06:45:09;10.33;;;5.53;;
9972;SDS011;5027;53.560;10.062;2023-02-28T06:47:39;11.23;;;5.17;;
9972;SDS011;5027;53.560;10.062;2023-02-28T06:50:07;14.00;;;5.67;;
9972;SDS011;5027;53.560;10.062;2023-02-28T06:52:37;14.30;;;5.40;;
9972;SDS011;5027;53.560;10.062;2023-02-28T06:55:07;13.53;;;6.03;;
9972;SDS011;5027;53.560;10.062;2023-02-28T06:57:35;14.83;;;5.83;;
9972;SDS011;5027;53.560;10.062;2023-02-28T07:00:07;10.73;;;5.93;;
9972;SDS011;5027;53.560;10.062;2023-02-28T07:02:38;11.67;;;5.97;;
9972;SDS011;5027;53.560;10.062;2023-02-28T07:05:05;9.67;;;5.47;;
9972;SDS011;5027;53.560;10.062;2023-02-28T07:07:32;9.37;;;5.80;;
9972;SDS011;5027;53.560;10.062;2023-02-28T07:09:59;11.40;;;5.33;;
9972;SDS011;5027;53.560;10.062;2023-02-28T07:12:26;13.97;;;7.07;;
9972;SDS011;5027;53.560;10.062;2023-02-28T07:14:52;16.63;;;6.03;;
9972;SDS011;5027;53.560;10.062;2023-02-28T07:17:20;12.13;;;5.93;;
9972;SDS011;5027;53.560;10.062;2023-02-28T07:19:47;12.97;;;5.80;;
9972;SDS011;5027;53.560;10.062;2023-02-28T07:22:13;12.13;;;6.07;;
9972;SDS011;5027;53.560;10.062;2023-02-28T07:24:41;11.87;;;6.27;;
9972;SDS011;5027;53.560;10.062;2023-02-28T07:27:07;20.77;;;6.40;;
9972;SDS011;5027;53.560;10.062;2023-02-28T07:29:34;8.27;;;5.47;;
9972;SDS011;5027;53.560;10.062;2023-02-28T07:32:01;11.70;;;6.17;;
9972;SDS011;5027;53.560;10.062;2023-02-28T07:34:27;10.87;;;5.53;;
9972;SDS011;5027;53.560;10.062;2023-02-28T07:36:54;12.93;;;5.57;;
9972;SDS011;5027;53.560;10.062;2023-02-28T07:39:21;9.47;;;5.77;;
9972;SDS011;5027;53.560;10.062;2023-02-28T07:41:48;14.07;;;6.17;;
9972;SDS011;5027;53.560;10.062;2023-02-28T07:44:14;13.77;;;6.67;;
9972;SDS011;5027;53.560;10.062;2023-02-28T07:46:44;9.40;;;5.53;;
9972;SDS011;5027;53.560;10.062;2023-02-28T07:49:13;10.63;;;6.00;;
9972;SDS011;5027;53.560;10.062;2023-02-28T07:51:40;16.33;;;6.37;;
9972;SDS011;5027;53.560;10.062;2023-02-28T07:54:06;15.93;;;6.93;;
9972;SDS011;5027;53.560;10.062;2023-02-28T07:56:33;14.17;;;6.27;;
9972;SDS011;5027;53.560;10.062;2023-02-28T07:59:00;13.10;;;6.83;;
9972;SDS011;5027;53.560;10.062;2023-02-28T08:01:27;22.70;;;12.17;;
9972;SDS011;5027;53.560;10.062;2023-02-28T08:03:55;10.33;;;5.73;;
9972;SDS011;5027;53.560;10.062;2023-02-28T08:06:23;10.10;;;6.57;;
9972;SDS011;5027;53.560;10.062;2023-02-28T08:08:51;14.17;;;6.43;;
9972;SDS011;5027;53.560;10.062;2023-02-28T08:11:18;14.97;;;6.77;;
9972;SDS011;5027;53.560;10.062;2023-02-28T08:13:45;13.63;;;6.10;;
9972;SDS011;5027;53.560;10.062;2023-02-28T08:16:12;12.43;;;5.77;;
9972;SDS011;5027;53.560;10.062;2023-02-28T08:18:53;15.83;;;6.23;;
9972;SDS011;5027;53.560;10.062;2023-02-28T08:21:39;10.60;;;5.97;;
9972;SDS011;5027;53.560;10.062;2023-02-28T08:24:06;15.00;;;5.70;;
9972;SDS011;5027;53.560;10.062;2023-02-28T08:26:33;16.00;;;5.93;;
9972;SDS011;5027;53.560;10.062;2023-02-28T08:28:59;12.53;;;6.30;;
9972;SDS011;5027;53.560;10.062;2023-02-28T08:31:27;16.83;;;6.80;;
9972;SDS011;5027;53.560;10.062;2023-02-28T08:33:54;18.97;;;6.60;;
9972;SDS011;5027;53.560;10.062;2023-02-28T08:36:24;15.53;;;6.27;;
9972;SDS011;5027;53.560;10.062;2023-02-28T08:38:52;16.13;;;6.33;;
9972;SDS011;5027;53.560;10.062;2023-02-28T08:41:18;14.43;;;6.10;;
9972;SDS011;5027;53.560;10.062;2023-02-28T08:43:45;11.70;;;6.77;;
9972;SDS011;5027;53.560;10.062;2023-02-28T08:46:12;12.70;;;5.90;;
9972;SDS011;5027;53.560;10.062;2023-02-28T08:48:40;13.77;;;5.53;;
9972;SDS011;5027;53.560;10.062;2023-02-28T08:51:09;17.27;;;6.43;;
9972;SDS011;5027;53.560;10.062;2023-02-28T08:53:38;10.97;;;5.70;;
9972;SDS011;5027;53.560;10.062;2023-02-28T08:56:07;12.60;;;5.27;;
9972;SDS011;5027;53.560;10.062;2023-02-28T08:58:38;12.37;;;4.83;;
9972;SDS011;5027;53.560;10.062;2023-02-28T09:01:13;9.23;;;4.73;;
9972;SDS011;5027;53.560;10.062;2023-02-28T09:03:41;12.10;;;4.87;;
9972;SDS011;5027;53.560;10.062;2023-02-28T09:06:09;12.13;;;5.10;;
9972;SDS011;5027;53.560;10.062;2023-02-28T09:08:37;17.13;;;5.60;;
9972;SDS011;5027;53.560;10.062;2023-02-28T09:11:04;16.90;;;5.73;;
9972;SDS011;5027;53.560;10.062;2023-02-28T09:13:31;9.07;;;4.57;;
9972;SDS011;5027;53.560;10.062;2023-02-28T09:15:59;10.20;;;4.77;;
9972;SDS011;5027;53.560;10.062;2023-02-28T09:18:27;7.03;;;4.20;;
9972;SDS011;5027;53.560;10.062;2023-02-28T09:20:54;7.87;;;4.17;;
9972;SDS011;5027;53.560;10.062;2023-02-28T09:23:21;11.73;;;4.23;;
9972;SDS011;5027;53.560;10.062;2023-02-28T09:25:49;12.40;;;4.33;;
9972;SDS011;5027;53.560;10.062;2023-02-28T09:28:17;6.53;;;3.83;;
9972;SDS011;5027;53.560;10.062;2023-02-28T09:30:45;5.93;;;3.90;;
9972;SDS011;5027;53.560;10.062;2023-02-28T09:33:13;9.23;;;4.10;;
9972;SDS011;5027;53.560;10.062;2023-02-28T09:35:40;13.37;;;7.13;;
9972;SDS011;5027;53.560;10.062;2023-02-28T09:38:07;4.53;;;3.40;;
9972;SDS011;5027;53.560;10.062;2023-02-28T09:40:38;7.73;;;3.80;;
9972;SDS011;5027;53.560;10.062;2023-02-28T09:43:12;8.77;;;3.73;;
9972;SDS011;5027;53.560;10.062;2023-02-28T09:45:42;11.50;;;3.60;;
9972;SDS011;5027;53.560;10.062;2023-02-28T09:48:21;10.03;;;3.37;;
9972;SDS011;5027;53.560;10.062;2023-02-28T09:50:55;4.37;;;2.60;;
9972;SDS011;5027;53.560;10.062;2023-02-28T09:53:29;3.73;;;1.97;;
9972;SDS011;5027;53.560;10.062;2023-02-28T09:56:10;3.07;;;1.33;;
9972;SDS011;5027;53.560;10.062;2023-02-28T09:58:52;5.07;;;2.57;;
9972;SDS011;5027;53.560;10.062;2023-02-28T10:01:57;8.90;;;2.60;;
9972;SDS011;5027;53.560;10.062;2023-02-28T10:04:46;6.07;;;2.40;;
9972;SDS011;5027;53.560;10.062;2023-02-28T10:12:58;3.87;;;2.23;;
9972;SDS011;5027;53.560;10.062;2023-02-28T10:15:29;3.63;;;2.20;;
9972;SDS011;5027;53.560;10.062;2023-02-28T10:17:59;4.93;;;2.30;;
9972;SDS011;5027;53.560;10.062;2023-02-28T10:20:35;4.87;;;2.20;;
9972;SDS011;5027;53.560;10.062;2023-02-28T10:23:09;3.67;;;2.17;;
9972;SDS011;5027;53.560;10.062;2023-02-28T10:26:00;5.13;;;2.20;;
9972;SDS011;5027;53.560;10.062;2023-02-28T10:28:35;5.80;;;2.50;;
9972;SDS011;5027;53.560;10.062;2023-02-28T10:31:08;3.50;;;2.30;;
9972;SDS011;5027;53.560;10.062;2023-02-28T10:33:45;3.93;;;2.20;;
9972;SDS011;5027;53.560;10.062;2023-02-28T10:36:13;4.10;;;2.50;;
9972;SDS011;5027;53.560;10.062;2023-02-28T10:38:43;6.00;;;2.47;;
9972;SDS011;5027;53.560;10.062;2023-02-28T10:41:15;5.17;;;2.37;;
9972;SDS011;5027;53.560;10.062;2023-02-28T10:43:53;4.50;;;2.40;;
9972;SDS011;5027;53.560;10.062;2023-02-28T10:46:49;3.77;;;2.23;;
9972;SDS011;5027;53.560;10.062;2023-02-28T10:49:20;8.33;;;2.13;;
9972;SDS011;5027;53.560;10.062;2023-02-28T10:51:54;3.43;;;1.80;;
9972;SDS011;5027;53.560;10.062;2023-02-28T10:54:26;3.73;;;2.90;;
9972;SDS011;5027;53.560;10.062;2023-02-28T10:59:39;5.30;;;2.60;;
9972;SDS011;5027;53.560;10.062;2023-02-28T11:04:56;5.17;;;2.10;;
9972;SDS011;5027;53.560;10.062;2023-02-28T11:07:23;4.87;;;2.23;;
9972;SDS011;5027;53.560;10.062;2023-02-28T11:09:56;3.47;;;2.10;;
9972;SDS011;5027;53.560;10.062;2023-02-28T11:15:22;4.77;;;2.37;;
9972;SDS011;5027;53.560;10.062;2023-02-28T11:18:36;7.70;;;2.67;;
9972;SDS011;5027;53.560;10.062;2023-02-28T11:20:59;7.07;;;2.17;;
9972;SDS011;5027;53.560;10.062;2023-02-28T11:23:28;4.50;;;2.57;;
9972;SDS011;5027;53.560;10.062;2023-02-28T11:25:59;6.63;;;2.33;;
9972;SDS011;5027;53.560;10.062;2023-02-28T11:28:34;3.83;;;2.23;;
9972;SDS011;5027;53.560;10.062;2023-02-28T11:33:40;4.93;;;2.13;;
9972;SDS011;5027;53.560;10.062;2023-02-28T11:38:46;5.73;;;2.53;;
9972;SDS011;5027;53.560;10.062;2023-02-28T11:44:20;6.53;;;2.60;;
9972;SDS011;5027;53.560;10.062;2023-02-28T11:47:00;4.77;;;2.43;;
9972;SDS011;5027;53.560;10.062;2023-02-28T11:52:21;4.23;;;2.60;;
9972;SDS011;5027;53.560;10.062;2023-02-28T11:55:08;4.47;;;2.33;;
9972;SDS011;5027;53.560;10.062;2023-02-28T12:05:49;4.93;;;2.60;;
9972;SDS011;5027;53.560;10.062;2023-02-28T12:10:58;6.70;;;2.33;;
9972;SDS011;5027;53.560;10.062;2023-02-28T12:19:17;4.07;;;2.07;;
9972;SDS011;5027;53.560;10.062;2023-02-28T12:27:11;3.20;;;2.40;;
9972;SDS011;5027;53.560;10.062;2023-02-28T12:32:27;5.87;;;2.47;;
9972;SDS011;5027;53.560;10.062;2023-02-28T12:35:19;4.90;;;2.27;;
9972;SDS011;5027;53.560;10.062;2023-02-28T12:38:04;3.73;;;2.07;;
9972;SDS011;5027;53.560;10.062;2023-02-28T12:40:56;4.63;;;2.40;;
9972;SDS011;5027;53.560;10.062;2023-02-28T12:43:37;7.00;;;2.23;;
9972;SDS011;5027;53.560;10.062;2023-02-28T12:46:17;5.93;;;2.20;;
9972;SDS011;5027;53.560;10.062;2023-02-28T12:48:53;5.40;;;1.93;;
9972;SDS011;5027;53.560;10.062;2023-02-28T12:51:23;4.33;;;2.33;;
9972;SDS011;5027;53.560;10.062;2023-02-28T12:54:05;4.40;;;2.00;;
9972;SDS011;5027;53.560;10.062;2023-02-28T12:56:38;5.67;;;2.50;;
9972;SDS011;5027;53.560;10.062;2023-02-28T13:10:19;2.83;;;1.90;;
9972;SDS011;5027;53.560;10.062;2023-02-28T13:12:49;5.53;;;2.23;;
9972;SDS011;5027;53.560;10.062;2023-02-28T13:15:27;4.67;;;2.23;;
9972;SDS011;5027;53.560;10.062;2023-02-28T13:17:56;2.87;;;2.23;;
9972;SDS011;5027;53.560;10.062;2023-02-28T13:20:26;3.23;;;2.00;;
9972;SDS011;5027;53.560;10.062;2023-02-28T13:22:57;4.50;;;1.93;;
9972;SDS011;5027;53.560;10.062;2023-02-28T13:28:00;4.90;;;1.90;;
9972;SDS011;5027;53.560;10.062;2023-02-28T13:33:27;3.77;;;2.30;;
9972;SDS011;5027;53.560;10.062;2023-02-28T13:36:06;3.90;;;2.30;;
9972;SDS011;5027;53.560;10.062;2023-02-28T13:38:40;5.57;;;2.20;;
9972;SDS011;5027;53.560;10.062;2023-02-28T13:49:19;5.03;;;2.40;;
9972;SDS011;5027;53.560;10.062;2023-02-28T13:57:09;3.13;;;2.53;;
9972;SDS011;5027;53.560;10.062;2023-02-28T14:00:07;7.77;;;2.50;;
9972;SDS011;5027;53.560;10.062;2023-02-28T14:03:00;4.23;;;2.33;;
9972;SDS011;5027;53.560;10.062;2023-02-28T14:05:51;4.17;;;2.20;;
9972;SDS011;5027;53.560;10.062;2023-02-28T14:08:55;6.70;;;2.23;;
9972;SDS011;5027;53.560;10.062;2023-02-28T14:11:26;4.43;;;2.30;;
9972;SDS011;5027;53.560;10.062;2023-02-28T14:14:04;4.07;;;2.27;;
9972;SDS011;5027;53.560;10.062;2023-02-28T14:19:14;4.13;;;2.33;;
9972;SDS011;5027;53.560;10.062;2023-02-28T14:22:01;5.13;;;2.57;;
9972;SDS011;5027;53.560;10.062;2023-02-28T14:25:03;2.43;;;1.97;;
9972;SDS011;5027;53.560;10.062;2023-02-28T14:28:01;4.23;;;2.33;;
9972;SDS011;5027;53.560;10.062;2023-02-28T14:36:22;2.93;;;2.03;;
9972;SDS011;5027;53.560;10.062;2023-02-28T14:38:57;4.40;;;2.60;;
9972;SDS011;5027;53.560;10.062;2023-02-28T14:41:31;4.80;;;2.23;;
9972;SDS011;5027;53.560;10.062;2023-02-28T14:44:21;3.87;;;2.37;;
9972;SDS011;5027;53.560;10.062;2023-02-28T14:47:00;3.70;;;2.77;;
9972;SDS011;5027;53.560;10.062;2023-02-28T14:49:35;3.70;;;2.20;;
9972;SDS011;5027;53.560;10.062;2023-02-28T14:54:43;2.30;;;2.07;;
9972;SDS011;5027;53.560;10.062;2023-02-28T14:57:24;3.53;;;2.40;;
9972;SDS011;5027;53.560;10.062;2023-02-28T15:00:04;5.50;;;2.30;;
9972;SDS011;5027;53.560;10.062;2023-02-28T15:02:42;3.53;;;2.20;;
9972;SDS011;5027;53.560;10.062;2023-02-28T15:07:36;4.80;;;2.30;;
9972;SDS011;5027;53.560;10.062;2023-02-28T15:10:36;3.73;;;2.33;;
9972;SDS011;5027;53.560;10.062;2023-02-28T15:12:57;10.43;;;2.40;;
9972;SDS011;5027;53.560;10.062;2023-02-28T15:18:32;5.90;;;2.60;;
9972;SDS011;5027;53.560;10.062;2023-02-28T15:21:15;4.13;;;2.60;;
9972;SDS011;5027;53.560;10.062;2023-02-28T15:23:46;4.70;;;2.70;;
9972;SDS011;5027;53.560;10.062;2023-02-28T15:26:22;6.13;;;2.73;;
9972;SDS011;5027;53.560;10.062;2023-02-28T15:28:52;3.70;;;2.63;;
9972;SDS011;5027;53.560;10.062;2023-02-28T15:31:27;2.30;;;1.80;;
9972;SDS011;5027;53.560;10.062;2023-02-28T15:34:12;3.43;;;2.30;;
9972;SDS011;5027;53.560;10.062;2023-02-28T15:36:46;4.67;;;2.23;;
9972;SDS011;5027;53.560;10.062;2023-02-28T15:39:21;4.70;;;2.20;;
9972;SDS011;5027;53.560;10.062;2023-02-28T15:44:45;3.63;;;2.70;;
9972;SDS011;5027;53.560;10.062;2023-02-28T15:47:19;4.07;;;2.37;;
9972;SDS011;5027;53.560;10.062;2023-02-28T15:49:49;4.90;;;2.77;;
9972;SDS011;5027;53.560;10.062;2023-02-28T15:52:20;3.73;;;2.20;;
9972;SDS011;5027;53.560;10.062;2023-02-28T15:54:52;4.30;;;2.40;;
9972;SDS011;5027;53.560;10.062;2023-02-28T15:57:20;3.80;;;2.30;;
9972;SDS011;5027;53.560;10.062;2023-02-28T15:59:51;3.07;;;2.20;;
9972;SDS011;5027;53.560;10.062;2023-02-28T16:02:22;4.87;;;2.43;;
9972;SDS011;5027;53.560;10.062;2023-02-28T16:07:43;3.87;;;2.43;;
9972;SDS011;5027;53.560;10.062;2023-02-28T16:10:11;2.60;;;1.90;;
9972;SDS011;5027;53.560;10.062;2023-02-28T16:12:40;4.13;;;2.60;;
9972;SDS011;5027;53.560;10.062;2023-02-28T16:17:44;4.23;;;2.60;;
9972;SDS011;5027;53.560;10.062;2023-02-28T16:20:16;4.17;;;2.23;;
9972;SDS011;5027;53.560;10.062;2023-02-28T16:22:45;4.17;;;2.83;;
9972;SDS011;5027;53.560;10.062;2023-02-28T16:25:16;4.33;;;2.47;;
9972;SDS011;5027;53.560;10.062;2023-02-28T16:27:46;4.50;;;2.87;;
9972;SDS011;5027;53.560;10.062;2023-02-28T16:30:23;6.03;;;2.40;;
9972;SDS011;5027;53.560;10.062;2023-02-28T16:32:52;2.70;;;2.27;;
9972;SDS011;5027;53.560;10.062;2023-02-28T16:35:21;4.97;;;3.00;;
9972;SDS011;5027;53.560;10.062;2023-02-28T16:37:48;7.80;;;2.50;;
9972;SDS011;5027;53.560;10.062;2023-02-28T16:40:18;9.00;;;3.10;;
9972;SDS011;5027;53.560;10.062;2023-02-28T16:42:51;6.33;;;3.13;;
9972;SDS011;5027;53.560;10.062;2023-02-28T16:45:22;5.80;;;2.60;;
9972;SDS011;5027;53.560;10.062;2023-02-28T16:47:54;8.93;;;3.00;;
9972;SDS011;5027;53.560;10.062;2023-02-28T16:50:24;6.40;;;3.03;;
9972;SDS011;5027;53.560;10.062;2023-02-28T16:52:55;7.77;;;2.37;;
9972;SDS011;5027;53.560;10.062;2023-02-28T16:55:22;4.27;;;2.83;;
9972;SDS011;5027;53.560;10.062;2023-02-28T16:57:52;3.27;;;2.70;;
9972;SDS011;5027;53.560;10.062;2023-02-28T17:00:20;6.60;;;3.20;;
9972;SDS011;5027;53.560;10.062;2023-02-28T17:02:47;3.77;;;2.90;;
9972;SDS011;5027;53.560;10.062;2023-02-28T17:05:22;3.93;;;2.63;;
9972;SDS011;5027;53.560;10.062;2023-02-28T17:07:49;5.27;;;2.90;;
9972;SDS011;5027;53.560;10.062;2023-02-28T17:10:21;4.27;;;3.07;;
9972;SDS011;5027;53.560;10.062;2023-02-28T17:12:49;5.20;;;3.60;;
9972;SDS011;5027;53.560;10.062;2023-02-28T17:15:17;7.77;;;4.07;;
9972;SDS011;5027;53.560;10.062;2023-02-28T17:17:45;6.33;;;3.30;;
9972;SDS011;5027;53.560;10.062;2023-02-28T17:20:14;3.80;;;2.80;;
9972;SDS011;5027;53.560;10.062;2023-02-28T17:22:49;4.30;;;3.30;;
9972;SDS011;5027;53.560;10.062;2023-02-28T17:25:16;6.37;;;3.73;;
9972;SDS011;5027;53.560;10.062;2023-02-28T17:27:43;5.93;;;3.00;;
9972;SDS011;5027;53.560;10.062;2023-02-28T17:32:41;8.60;;;3.43;;